»·PEaware :: N723DW KPSP-KBFL

N723DW :: KPSP-KBFL

FLIGHT INFORMATION

Flight Status: Arrived
Operator: Privately registered:
United States
More flights under this callsign
Pilot: Danny W. (23158)
Aircraft: CESSNA 310
(C310)
More flights by this aircraft type
Origin: KPSP Palm Springs Intl
United States
Destination: KBFL Meadows
United States
More flights between these airports :: More routes between these airports
Route: +CATH1 PSP V388 PDZ V197 ARVIN
File this flight plan on PilotEdge
Remarks:
Altitude:
(Current/Filed)
10,000ft
Speed:
(Current/Filed)
175kts
Departed: 06-Feb-19 05:25 PM
Arrived: 06-Feb-19 07:05 PM
Distance/Time
Traveled:
159nm/1:39
Distance/Time
To Go:
Arrived

Flight Plot

Page will automatically refresh every two minutes.

Flight plan parsing failed; only flown route is shown


Map Options




Map Legend


Flown Route
Filed Route
Departure Airport
Arrival Airport
Navaid (VOR, NDB)
Fix

Horizontal Profiles

Position Reports

Time Latitude Longitude Heading Altitude Ground
Speed
06-Feb-19 16:41 33.823004 -116.497246 54 480ft 0kts
06-Feb-19 16:42 33.823004 -116.497246 54 480ft 0kts
06-Feb-19 16:43 33.823004 -116.497246 54 480ft 0kts
06-Feb-19 16:44 33.823004 -116.497246 54 480ft 0kts
06-Feb-19 16:45 33.823004 -116.497246 54 480ft 0kts
06-Feb-19 16:46 33.823004 -116.497246 54 480ft 0kts
06-Feb-19 16:47 33.823004 -116.497246 54 480ft 0kts
06-Feb-19 16:48 33.823004 -116.497246 54 480ft 0kts
06-Feb-19 16:49 33.823004 -116.497246 54 480ft 0kts
06-Feb-19 16:50 33.823004 -116.497246 54 480ft 0kts
06-Feb-19 16:51 33.823004 -116.497246 54 480ft 0kts
06-Feb-19 16:52 33.823004 -116.497246 54 480ft 0kts
06-Feb-19 16:53 33.823004 -116.497246 54 480ft 0kts
06-Feb-19 16:54 33.823004 -116.497246 54 480ft 0kts
06-Feb-19 16:55 33.823004 -116.497246 54 480ft 0kts
06-Feb-19 16:56 33.823004 -116.497246 54 480ft 0kts
06-Feb-19 16:57 33.823004 -116.497246 54 480ft 0kts
06-Feb-19 16:58 33.823004 -116.497246 54 480ft 0kts
06-Feb-19 16:59 33.823004 -116.497246 54 480ft 0kts
06-Feb-19 17:00 33.823004 -116.497246 54 480ft 0kts
06-Feb-19 17:01 33.823004 -116.497246 54 480ft 0kts
06-Feb-19 17:02 33.823004 -116.497246 54 480ft 0kts
06-Feb-19 17:03 33.823004 -116.497246 54 480ft 0kts
06-Feb-19 17:04 33.823004 -116.497246 54 480ft 0kts
06-Feb-19 17:05 33.823004 -116.497246 54 480ft 0kts
06-Feb-19 17:06 33.823004 -116.497246 54 480ft 0kts
06-Feb-19 17:07 33.823004 -116.497246 54 480ft 0kts
06-Feb-19 17:08 33.823004 -116.497246 54 480ft 0kts
06-Feb-19 17:09 33.823004 -116.497246 54 480ft 0kts
06-Feb-19 17:10 33.823004 -116.497246 54 480ft 0kts
06-Feb-19 17:11 33.823004 -116.497246 54 480ft 0kts
06-Feb-19 17:12 33.823004 -116.497246 54 480ft 0kts
06-Feb-19 17:13 33.823004 -116.497246 54 480ft 0kts
06-Feb-19 17:14 33.823004 -116.497246 54 480ft 0kts
06-Feb-19 17:15 33.823004 -116.497246 54 480ft 0kts
06-Feb-19 17:16 33.823004 -116.497246 54 480ft 0kts
06-Feb-19 17:17 33.823004 -116.497246 54 480ft 0kts
06-Feb-19 17:18 33.824435 -116.498262 324 480ft 13kts
06-Feb-19 17:19 33.824623 -116.499585 232 480ft 0kts
06-Feb-19 17:20 33.824622 -116.499586 232 480ft 0kts
06-Feb-19 17:21 33.824548 -116.500232 325 480ft 0kts
06-Feb-19 17:22 33.824550 -116.500233 325 480ft 0kts
06-Feb-19 17:23 33.824553 -116.500235 325 480ft 0kts
06-Feb-19 17:24 33.829018 -116.504206 324 490ft 93kts
06-Feb-19 17:25 33.852965 -116.523035 328 2175ft 112kts
06-Feb-19 17:26 33.880797 -116.541866 330 3782ft 115kts
06-Feb-19 17:27 33.908878 -116.558615 327 5347ft 107kts
06-Feb-19 17:28 33.914009 -116.538938 144 6635ft 125kts
06-Feb-19 17:29 33.892796 -116.500682 110 7428ft 149kts
06-Feb-19 17:30 33.877517 -116.452753 110 8175ft 152kts
06-Feb-19 17:31 33.860462 -116.407236 116 8953ft 146kts
06-Feb-19 17:32 33.842369 -116.364756 114 9721ft 139kts
06-Feb-19 17:33 33.823941 -116.321381 114 10045ft 163kts
06-Feb-19 17:34 33.800766 -116.266640 115 9994ft 197kts
06-Feb-19 17:35 33.760557 -116.241338 230 9991ft 180kts
06-Feb-19 17:37 33.771164 -116.288101 312 9993ft 161kts
06-Feb-19 17:38 33.798620 -116.327842 310 9996ft 161kts
06-Feb-19 17:39 33.823870 -116.363940 310 9994ft 161kts
06-Feb-19 17:40 33.852818 -116.405372 310 9993ft 161kts
06-Feb-19 17:41 33.875518 -116.451167 289 9998ft 163kts
06-Feb-19 17:42 33.888776 -116.503683 290 9998ft 164kts
06-Feb-19 17:43 33.902131 -116.556302 290 9998ft 164kts
06-Feb-19 17:44 33.915484 -116.608979 290 10001ft 164kts
06-Feb-19 17:45 33.928790 -116.661564 290 9995ft 164kts
06-Feb-19 17:46 33.942043 -116.714259 290 9990ft 164kts
06-Feb-19 17:47 33.947763 -116.768748 272 9983ft 168kts
06-Feb-19 17:48 33.945841 -116.823074 273 9984ft 168kts
06-Feb-19 17:49 33.943909 -116.878994 273 9982ft 168kts
06-Feb-19 17:50 33.941947 -116.935621 273 9947ft 169kts
06-Feb-19 17:51 33.939938 -116.992343 273 9945ft 169kts
06-Feb-19 17:52 33.937929 -117.049118 273 9953ft 169kts
06-Feb-19 17:53 33.935904 -117.105041 273 9956ft 169kts
06-Feb-19 17:54 33.933802 -117.161478 274 9958ft 168kts
06-Feb-19 17:55 33.931450 -117.216975 273 9965ft 169kts
06-Feb-19 17:56 33.928960 -117.273679 273 9967ft 170kts
06-Feb-19 17:56 33.926885 -117.320995 273 9969ft 170kts
06-Feb-19 17:57 33.924979 -117.364438 274 9975ft 170kts
06-Feb-19 17:59 33.922341 -117.430648 274 9983ft 170kts
06-Feb-19 17:59 33.920412 -117.478156 274 9983ft 170kts
06-Feb-19 18:00 33.920651 -117.534522 298 9988ft 161kts
06-Feb-19 18:01 33.947263 -117.576943 310 10000ft 159kts
06-Feb-19 18:02 33.974026 -117.619567 310 9997ft 159kts
06-Feb-19 18:03 34.000690 -117.662340 310 9998ft 159kts
06-Feb-19 18:04 34.027303 -117.705192 310 9995ft 160kts
06-Feb-19 18:05 34.044366 -117.732661 310 9993ft 160kts
06-Feb-19 18:06 34.071116 -117.775704 310 9996ft 159kts
06-Feb-19 18:07 34.098293 -117.797121 338 10009ft 156kts
06-Feb-19 18:08 34.138834 -117.817299 336 9997ft 157kts
06-Feb-19 18:09 34.179225 -117.837418 337 9992ft 157kts
06-Feb-19 18:10 34.219795 -117.857626 336 9998ft 157kts
06-Feb-19 18:11 34.260409 -117.877912 336 10000ft 158kts
06-Feb-19 18:12 34.301013 -117.898260 336 10004ft 158kts
06-Feb-19 18:13 34.341661 -117.918563 336 10021ft 157kts
06-Feb-19 18:14 34.374500 -117.934978 336 10017ft 158kts
06-Feb-19 18:15 34.415235 -117.955309 336 10021ft 158kts
06-Feb-19 18:16 34.455775 -117.975662 336 10018ft 158kts
06-Feb-19 18:17 34.496550 -117.996112 336 10016ft 158kts
06-Feb-19 18:18 34.537338 -118.016618 336 10021ft 158kts
06-Feb-19 18:19 34.578010 -118.037083 336 10025ft 158kts
06-Feb-19 18:20 34.618677 -118.057629 336 10021ft 158kts
06-Feb-19 18:21 34.652368 -118.091009 315 10030ft 159kts
06-Feb-19 18:22 34.682681 -118.130663 315 10034ft 160kts
06-Feb-19 18:23 34.713095 -118.170199 315 10029ft 160kts
06-Feb-19 18:24 34.743467 -118.209755 315 10036ft 160kts
06-Feb-19 18:25 34.773879 -118.249430 315 10034ft 160kts
06-Feb-19 18:26 34.804397 -118.289295 315 10034ft 161kts
06-Feb-19 18:27 34.834848 -118.329082 314 10034ft 161kts
06-Feb-19 18:28 34.865498 -118.369135 314 10023ft 161kts
06-Feb-19 18:29 34.896035 -118.409166 314 10025ft 162kts
06-Feb-19 18:30 34.926744 -118.449429 314 10022ft 162kts
06-Feb-19 18:31 34.957524 -118.489847 314 10019ft 162kts
06-Feb-19 18:32 34.982229 -118.522259 314 9915ft 161kts
06-Feb-19 18:33 35.013077 -118.562785 314 9914ft 163kts
06-Feb-19 18:34 35.045336 -118.601472 319 9915ft 160kts
06-Feb-19 18:35 35.077410 -118.636647 318 9909ft 155kts
06-Feb-19 18:36 35.109843 -118.673007 318 9915ft 159kts
06-Feb-19 18:37 35.141608 -118.708518 318 9911ft 147kts
06-Feb-19 18:38 35.169846 -118.739961 319 9926ft 125kts
06-Feb-19 18:39 35.188544 -118.760912 317 9923ft 95kts
06-Feb-19 18:40 35.204608 -118.778973 321 9607ft 75kts
06-Feb-19 18:41 35.221291 -118.798179 319 9788ft 95kts
06-Feb-19 18:42 35.243095 -118.823108 319 9973ft 116kts
06-Feb-19 18:43 35.266273 -118.849287 319 9953ft 99kts
06-Feb-19 18:44 35.282570 -118.867764 322 9623ft 74kts
06-Feb-19 18:45 35.297963 -118.887154 315 8644ft 94kts
06-Feb-19 18:46 35.315989 -118.910140 316 7753ft 72kts
06-Feb-19 18:47 35.329374 -118.926027 316 7667ft 69kts
06-Feb-19 18:48 35.350345 -118.952899 315 8032ft 137kts
06-Feb-19 18:49 35.378298 -118.988106 315 8011ft 147kts
06-Feb-19 18:50 35.377974 -119.034723 242 7562ft 179kts
06-Feb-19 18:51 35.338961 -119.057334 192 6549ft 186kts
06-Feb-19 18:52 35.287061 -119.068493 192 5356ft 188kts
06-Feb-19 18:53 35.235774 -119.079573 191 4159ft 186kts
06-Feb-19 18:54 35.188458 -119.075036 118 2968ft 181kts
06-Feb-19 18:55 35.209904 -119.027216 42 2988ft 180kts
06-Feb-19 18:56 35.245733 -118.983901 42 2986ft 178kts
06-Feb-19 18:57 35.281152 -118.941403 42 2985ft 178kts
06-Feb-19 18:58 35.319582 -118.926348 297 2684ft 159kts
06-Feb-19 18:59 35.346243 -118.961666 321 2181ft 136kts
06-Feb-19 19:00 35.373701 -118.987769 318 1451ft 116kts
06-Feb-19 19:01 35.395539 -119.013486 316 1140ft 109kts
06-Feb-19 19:02 35.415328 -119.037650 315 832ft 94kts
06-Feb-19 19:03 35.431555 -119.057043 316 510ft 61kts
06-Feb-19 19:04 35.434233 -119.060753 222 510ft 0kts
06-Feb-19 19:05 35.434233 -119.060753 222 510ft 0kts
06-Feb-19 19:06 35.433239 -119.060113 136 510ft 20kts
06-Feb-19 19:07 35.432242 -119.059614 149 510ft 0kts

Navigation Log

Ident Type
Flight plan parsing failed, navigation log unavailable